Time;durP1;ratioP1;P1;durP2;ratioP2;P2;SDS_P1;SDS_P2;PMS_P1;PMS_P2;Temp;Humidity;BMP_temperature;BMP_pressure;BME280_temperature;BME280_humidity;BME280_pressure;Samples;Min_cycle;Max_cycle;Signal;HPM_P1;HPM_P2
2021/12/10 00:01:56;;;;;;;27.25;13.90;;;;;;;1.60;93.86;99747.56;5072071;28;20316;-71
2021/12/10 00:04:29;;;;;;;23.60;13.30;;;;;;;1.61;93.84;99746.63;5072171;28;20024;-72
2021/12/10 00:06:57;;;;;;;24.70;13.95;;;;;;;1.61;94.17;99741.38;5061296;28;20436;-72
2021/12/10 00:09:27;;;;;;;22.60;14.50;;;;;;;1.62;94.21;99727.38;5058911;28;20117;-71
2021/12/10 00:12:00;;;;;;;26.85;14.30;;;;;;;1.67;94.02;99724.50;5050576;28;20054;-71
2021/12/10 00:14:30;;;;;;;27.38;15.18;;;;;;;1.72;93.67;99721.63;5041935;28;20028;-72
2021/12/10 00:16:55;;;;;;;25.17;14.30;;;;;;;1.73;93.86;99710.22;5061248;28;20439;-72
2021/12/10 00:19:32;;;;;;;23.83;13.80;;;;;;;1.74;93.75;99702.25;5070636;28;20100;-72
2021/12/10 00:21:59;;;;;;;23.00;13.63;;;;;;;1.77;93.68;99703.88;5066782;28;20036;-72
2021/12/10 00:24:29;;;;;;;21.98;12.13;;;;;;;1.79;93.47;99702.00;5069997;28;20096;-72
2021/12/10 00:26:55;;;;;;;23.30;11.90;;;;;;;1.82;93.21;99688.75;5057667;28;20025;-72
2021/12/10 00:29:21;;;;;;;23.42;11.80;;;;;;;1.84;92.76;99682.47;5068712;28;20035;-72
2021/12/10 00:31:56;;;;;;;22.70;11.63;;;;;;;1.85;93.14;99671.06;5064809;28;20025;-71
2021/12/10 00:34:55;;;;;;;21.83;11.30;;;;;;;1.89;92.67;99670.88;5064161;28;20025;-71
2021/12/10 00:37:22;;;;;;;21.63;11.25;;;;;;;1.92;92.47;99662.84;5040309;28;20322;-72
2021/12/10 00:39:56;;;;;;;20.48;11.07;;;;;;;1.97;92.43;99655.56;5050571;28;20486;-73
2021/12/10 00:42:25;;;;;;;15.20;9.75;;;;;;;2.00;91.71;99653.59;5051731;28;20025;-71
2021/12/10 00:44:51;;;;;;;19.33;9.55;;;;;;;2.01;91.78;99646.56;5043861;28;20446;-72
2021/12/10 00:47:16;;;;;;;17.38;8.95;;;;;;;1.99;91.48;99628.34;5070168;28;20478;-71
2021/12/10 00:49:42;;;;;;;16.13;9.52;;;;;;;1.99;91.54;99635.34;5071536;28;20524;-72
2021/12/10 00:52:10;;;;;;;17.63;9.43;;;;;;;1.95;91.24;99624.22;5056604;28;20040;-71
2021/12/10 00:54:36;;;;;;;17.05;9.20;;;;;;;1.95;91.32;99615.50;5071401;28;20419;-72
2021/12/10 00:57:03;;;;;;;13.95;8.00;;;;;;;1.95;91.30;99611.13;5071260;28;20060;-72
2021/12/10 00:59:28;;;;;;;16.17;8.13;;;;;;;1.93;91.13;99594.69;5063414;28;20081;-73
2021/12/10 01:01:54;;;;;;;14.85;7.22;;;;;;;1.92;90.98;99595.59;5058063;28;20446;-72
2021/12/10 01:04:26;;;;;;;14.85;8.13;;;;;;;1.96;90.90;99588.41;5064981;28;20029;-73
2021/12/10 01:06:55;;;;;;;13.05;7.18;;;;;;;1.93;90.68;99573.75;5052457;28;20025;-72
2021/12/10 01:09:24;;;;;;;13.65;7.32;;;;;;;1.93;90.92;99567.63;5067452;28;20094;-71
2021/12/10 01:11:51;;;;;;;;;;;;;;;1.97;91.20;99569.16;5060658;28;20028;-72
2021/12/10 01:14:41;;;;;;;13.52;6.97;;;;;;;1.91;90.99;99564.28;5068474;28;19954;-72
2021/12/10 01:28:10;;;;;;;15.98;7.30;;;;;;;1.88;90.63;99525.19;5059416;28;20041;-72
2021/12/10 01:30:38;;;;;;;16.23;7.47;;;;;;;1.89;90.30;99522.47;5070816;28;20433;-71
2021/12/10 01:33:09;;;;;;;16.90;7.83;;;;;;;1.87;90.75;99507.81;5053316;28;20025;-71
2021/12/10 01:35:41;;;;;;;14.73;7.65;;;;;;;1.85;90.86;99495.66;5050731;28;20028;-71
2021/12/10 01:38:09;;;;;;;14.45;7.45;;;;;;;1.88;90.65;99501.63;5050503;28;20044;-72
2021/12/10 01:40:37;;;;;;;11.75;6.65;;;;;;;1.88;90.29;99494.59;5050104;28;20047;-72
2021/12/10 01:43:07;;;;;;;10.52;5.93;;;;;;;1.88;90.69;99489.38;5044298;28;20017;-71
2021/12/10 01:45:35;;;;;;;;;;;;;;;1.92;90.71;99483.00;5050702;28;20029;-72
2021/12/10 01:48:10;;;;;;;14.55;6.22;;;;;;;1.87;89.95;99485.09;5053626;28;19920;-71
2021/12/10 01:50:36;;;;;;;15.20;6.20;;;;;;;1.88;90.29;99475.44;5036559;28;20033;-72
2021/12/10 01:53:05;;;;;;;12.20;6.10;;;;;;;1.87;89.95;99479.00;5063225;28;20042;-72
2021/12/10 01:55:33;;;;;;;9.20;6.07;;;;;;;1.83;90.08;99471.34;5068617;28;20398;-73
2021/12/10 01:57:59;;;;;;;14.70;5.93;;;;;;;1.84;90.23;99472.19;5070322;28;20035;-72
2021/12/10 02:00:29;;;;;;;10.32;5.38;;;;;;;1.85;90.22;99468.63;5044070;28;20476;-72
2021/12/10 02:02:55;;;;;;;12.77;5.93;;;;;;;1.84;90.15;99462.53;5050214;28;20495;-72
2021/12/10 02:05:21;;;;;;;12.02;6.07;;;;;;;1.84;90.09;99461.72;5070097;28;20033;-70
2021/12/10 02:07:48;;;;;;;14.52;5.38;;;;;;;1.84;89.82;99452.06;5058973;28;20431;-73
2021/12/10 02:10:17;;;;;;;9.50;5.45;;;;;;;1.83;89.70;99442.56;5048607;28;20053;-72
2021/12/10 02:12:42;;;;;;;;;;;;;;;1.88;90.30;99446.66;5060735;28;20029;-72
2021/12/10 02:15:11;;;;;;;14.40;5.38;;;;;;;1.83;90.02;99439.06;5046092;28;20384;-72
2021/12/10 02:17:39;;;;;;;13.13;5.23;;;;;;;1.81;89.86;99444.41;5056992;28;20029;-72
2021/12/10 02:20:08;;;;;;;11.10;5.20;;;;;;;1.82;89.89;99438.25;5062608;28;20021;-70
2021/12/10 02:22:34;;;;;;;12.73;5.50;;;;;;;1.83;89.79;99431.22;5058614;28;20371;-72
2021/12/10 02:24:59;;;;;;;10.60;5.20;;;;;;;1.83;89.87;99420.75;5059091;28;20032;-72
2021/12/10 02:27:24;;;;;;;16.45;5.63;;;;;;;1.83;89.51;99410.28;5037728;28;20044;-72
2021/12/10 02:29:50;;;;;;;15.38;5.00;;;;;;;1.80;89.63;99400.84;5057322;28;20522;-72
2021/12/10 02:32:15;;;;;;;10.52;4.95;;;;;;;1.81;89.45;99394.66;5055362;28;20025;-72
2021/12/10 02:34:42;;;;;;;12.88;5.43;;;;;;;1.80;89.37;99390.38;5055262;28;20024;-73
2021/12/10 02:37:09;;;;;;;10.30;5.10;;;;;;;1.81;89.64;99389.44;5065930;28;20032;-72
2021/12/10 02:39:35;;;;;;;13.48;5.03;;;;;;;1.81;89.22;99384.19;5069908;28;20438;-71
2021/12/10 02:42:00;;;;;;;10.85;4.57;;;;;;;1.82;89.35;99383.25;5058066;28;20032;-72
2021/12/10 02:44:27;;;;;;;12.57;4.15;;;;;;;1.81;89.31;99378.97;5051465;28;20041;-71
2021/12/10 02:46:53;;;;;;;11.23;4.93;;;;;;;1.81;89.22;99360.63;5070109;28;20032;-71
2021/12/10 02:49:19;;;;;;;8.65;4.43;;;;;;;1.82;88.96;99357.09;5056963;28;20032;-72
2021/12/10 02:51:45;;;;;;;8.73;4.10;;;;;;;1.83;88.75;99352.69;5052939;28;20032;-71
2021/12/10 02:54:14;;;;;;;7.53;3.72;;;;;;;1.82;88.70;99348.41;5073576;28;20032;-72
2021/12/10 02:56:40;;;;;;;11.85;4.18;;;;;;;1.86;88.57;99357.72;5056491;28;20028;-72
2021/12/10 02:59:06;;;;;;;8.73;3.65;;;;;;;1.85;88.75;99342.97;5073424;28;20271;-72
2021/12/10 03:01:43;;;;;;;9.57;3.83;;;;;;;1.89;88.22;99344.44;5062796;28;20028;-72
2021/12/10 03:04:10;;;;;;;6.40;3.38;;;;;;;1.89;88.46;99336.59;5037417;28;20045;-72
2021/12/10 03:06:44;;;;;;;11.15;3.78;;;;;;;1.89;88.46;99320.03;5033596;28;20167;-72
2021/12/10 03:09:10;;;;;;;8.50;3.65;;;;;;;1.93;88.17;99326.75;5051866;28;20490;-72
2021/12/10 03:11:37;;;;;;;9.48;3.70;;;;;;;1.92;88.03;99320.69;5053523;28;20029;-72
2021/12/10 03:14:10;;;;;;;12.15;3.92;;;;;;;1.96;87.90;99311.66;5045184;28;20083;-72
2021/12/10 03:16:38;;;;;;;12.18;4.00;;;;;;;1.95;87.75;99310.00;5033696;28;20373;-72
2021/12/10 03:19:05;;;;;;;11.40;3.53;;;;;;;1.97;87.83;99310.75;5033465;28;20475;-72
2021/12/10 03:21:31;;;;;;;7.75;3.70;;;;;;;1.97;87.74;99315.97;5033283;28;20037;-71
2021/12/10 03:23:56;;;;;;;9.13;3.38;;;;;;;1.97;87.78;99304.69;5033325;28;20033;-72
2021/12/10 03:26:22;;;;;;;11.85;3.58;;;;;;;1.96;87.38;99295.97;5033246;28;20434;-73
2021/12/10 03:28:50;;;;;;;9.30;4.50;;;;;;;1.97;87.68;99294.22;5032833;28;20057;-72
2021/12/10 03:31:18;;;;;;;9.77;4.00;;;;;;;1.97;87.58;99299.44;5053473;28;20067;-72
2021/12/10 03:33:45;;;;;;;6.15;3.30;;;;;;;1.94;87.86;99291.78;5071586;28;20030;-71
2021/12/10 03:36:10;;;;;;;9.75;3.67;;;;;;;2.00;87.45;99294.00;5068298;28;20079;-72
2021/12/10 03:38:38;;;;;;;8.77;3.50;;;;;;;2.00;87.16;99283.53;5065198;28;20068;-72
2021/12/10 03:41:04;;;;;;;10.00;3.72;;;;;;;2.02;87.50;99282.47;5063141;28;20025;-72
2021/12/10 03:43:29;;;;;;;7.55;3.40;;;;;;;2.02;87.21;99272.00;5055629;28;20032;-72
2021/12/10 03:45:57;;;;;;;8.98;3.50;;;;;;;2.04;87.25;99262.25;5059519;28;20394;-72
2021/12/10 03:48:35;;;;;;;8.98;3.08;;;;;;;2.07;87.07;99268.25;5072620;28;20035;-72
2021/12/10 03:51:06;;;;;;;10.88;3.85;;;;;;;2.07;87.18;99258.59;5066115;28;20041;-72
2021/12/10 03:53:31;;;;;;;8.15;3.30;;;;;;;2.11;86.81;99262.69;5064659;28;20044;-72
2021/12/10 03:56:04;;;;;;;9.88;3.30;;;;;;;2.14;86.97;99259.03;5042806;28;20029;-72
2021/12/10 03:58:31;;;;;;;10.07;3.63;;;;;;;2.15;87.26;99258.06;5060646;28;20074;-72
2021/12/10 04:00:57;;;;;;;11.38;3.78;;;;;;;2.15;87.27;99255.44;5068527;28;20501;-72
2021/12/10 04:03:25;;;;;;;5.68;3.08;;;;;;;2.17;87.14;99243.13;5052433;28;20036;-72
2021/12/10 04:05:51;;;;;;;9.65;3.63;;;;;;;2.18;87.35;99236.91;5052599;28;20029;-72
2021/12/10 04:08:16;;;;;;;8.82;3.35;;;;;;;2.17;87.21;99225.59;5052136;28;20060;-72
2021/12/10 04:10:43;;;;;;;8.55;3.33;;;;;;;2.20;87.35;99221.97;5033255;28;20029;-71
2021/12/10 04:13:11;;;;;;;6.47;3.10;;;;;;;2.20;87.37;99221.97;5032387;28;20429;-72
2021/12/10 04:15:38;;;;;;;9.70;2.95;;;;;;;2.20;87.43;99209.69;5032315;28;20371;-72
2021/12/10 04:18:07;;;;;;;9.60;3.30;;;;;;;2.20;87.63;99204.44;5032143;28;20029;-72
2021/12/10 04:20:33;;;;;;;11.75;3.85;;;;;;;2.22;87.80;99199.94;5032154;28;20037;-72
2021/12/10 04:23:00;;;;;;;11.02;3.50;;;;;;;2.21;87.81;99200.03;5032578;28;20034;-72
2021/12/10 04:25:26;;;;;;;13.45;3.72;;;;;;;2.22;87.51;99189.47;5031915;28;20029;-72
2021/12/10 04:27:56;;;;;;;8.75;3.55;;;;;;;2.26;87.36;99181.41;5032029;28;20025;-73
2021/12/10 04:30:23;;;;;;;11.13;3.38;;;;;;;2.26;87.03;99176.97;5031984;28;20403;-73
2021/12/10 04:32:50;;;;;;;12.75;3.25;;;;;;;2.28;87.34;99167.25;5031814;28;20036;-72
2021/12/10 04:35:18;;;;;;;7.53;3.15;;;;;;;2.28;87.58;99161.16;5031847;28;20386;-73
2021/12/10 04:37:44;;;;;;;9.60;3.17;;;;;;;2.27;87.41;99152.47;5031644;28;20018;-72
2021/12/10 04:40:12;;;;;;;12.93;3.78;;;;;;;2.26;87.47;99153.41;5031671;28;20061;-71
2021/12/10 04:42:38;;;;;;;7.18;3.70;;;;;;;2.24;87.29;99149.25;5031762;28;20037;-71
2021/12/10 04:45:05;;;;;;;6.72;3.22;;;;;;;2.24;87.27;99134.34;5031374;28;20026;-72
2021/12/10 04:47:30;;;;;;;9.48;3.25;;;;;;;2.22;87.29;99131.84;5031538;28;20028;-72
2021/12/10 04:49:57;;;;;;;9.38;3.63;;;;;;;2.22;87.44;99133.63;5031360;28;20025;-72
2021/12/10 04:52:23;;;;;;;8.55;3.45;;;;;;;2.20;87.88;99123.25;5050583;28;20029;-72
2021/12/10 04:54:48;;;;;;;8.10;3.33;;;;;;;2.18;88.18;99121.66;5050503;28;20048;-71
2021/12/10 04:57:15;;;;;;;8.82;3.65;;;;;;;2.18;87.91;99119.06;5052020;28;20029;-71
2021/12/10 04:59:41;;;;;;;10.85;3.80;;;;;;;2.18;87.71;99105.94;5067882;28;20367;-71
2021/12/10 05:02:09;;;;;;;10.25;3.20;;;;;;;2.16;87.43;99105.22;5055266;28;20039;-71
2021/12/10 05:04:38;;;;;;;6.63;3.42;;;;;;;2.19;87.05;99103.22;5067406;28;20025;-71
2021/12/10 05:07:05;;;;;;;8.30;2.90;;;;;;;2.19;87.23;99099.78;5051167;28;20479;-71
2021/12/10 05:09:31;;;;;;;10.13;3.33;;;;;;;2.18;87.84;99093.72;5045950;28;20092;-72
2021/12/10 05:11:57;;;;;;;9.30;2.95;;;;;;;2.18;87.46;99095.47;5069750;28;20032;-72
2021/12/10 05:14:23;;;;;;;9.38;3.00;;;;;;;2.18;87.03;99085.84;5069832;28;20043;-72
2021/12/10 05:16:50;;;;;;;8.70;3.05;;;;;;;2.17;87.21;99094.66;5047981;28;20116;-72
2021/12/10 05:19:19;;;;;;;9.80;3.20;;;;;;;2.19;86.17;99077.03;5070910;28;20379;-74
2021/12/10 05:21:46;;;;;;;9.35;3.05;;;;;;;2.20;86.64;99080.50;5070973;28;20036;-72
2021/12/10 05:24:13;;;;;;;7.20;3.05;;;;;;;2.21;86.44;99083.03;5033622;28;20079;-72
2021/12/10 05:26:39;;;;;;;7.72;3.03;;;;;;;2.19;86.76;99079.66;5030830;28;20076;-72
2021/12/10 05:29:06;;;;;;;6.40;3.45;;;;;;;2.20;86.53;99077.91;5030730;28;20037;-72
2021/12/10 05:31:32;;;;;;;8.85;3.60;;;;;;;2.20;86.81;99075.28;5030708;28;20380;-73
2021/12/10 05:33:58;;;;;;;8.63;3.47;;;;;;;2.20;86.49;99070.03;5030802;28;20489;-73
2021/12/10 05:36:24;;;;;;;10.95;3.50;;;;;;;2.21;86.16;99067.31;5031209;28;20112;-72
2021/12/10 05:38:50;;;;;;;9.70;3.40;;;;;;;2.23;86.06;99067.19;5030841;28;20035;-74
2021/12/10 05:41:15;;;;;;;9.48;3.88;;;;;;;2.25;86.10;99067.94;5030557;28;20029;-72
2021/12/10 05:43:41;;;;;;;10.18;4.10;;;;;;;2.26;85.99;99056.47;5030527;28;20029;-73
2021/12/10 05:46:07;;;;;;;11.63;4.05;;;;;;;2.31;85.59;99067.47;5030794;28;20033;-73
2021/12/10 05:48:33;;;;;;;10.63;3.65;;;;;;;2.30;85.49;99057.09;5030769;28;20036;-74
2021/12/10 05:50:59;;;;;;;10.20;3.65;;;;;;;2.30;85.61;99054.47;5034205;28;20103;-73
2021/12/10 05:53:24;;;;;;;12.45;4.10;;;;;;;2.36;85.09;99064.53;5061551;28;20422;-74
2021/12/10 05:55:50;;;;;;;7.65;3.92;;;;;;;2.34;85.30;99064.63;5068360;28;20082;-74
2021/12/10 05:58:16;;;;;;;11.98;3.67;;;;;;;2.35;85.17;99057.63;5059159;28;20033;-74
2021/12/10 06:00:49;;;;;;;7.80;3.90;;;;;;;2.35;84.92;99055.84;5056320;28;20056;-74
2021/12/10 06:03:16;;;;;;;8.77;3.78;;;;;;;2.35;85.50;99057.63;5043379;28;20358;-73
2021/12/10 06:05:41;;;;;;;9.10;3.90;;;;;;;2.33;85.78;99052.50;5069266;28;20024;-73
2021/12/10 06:08:08;;;;;;;9.82;3.60;;;;;;;2.39;84.94;99045.97;5061761;28;20082;-72
2021/12/10 06:10:34;;;;;;;11.45;3.40;;;;;;;2.36;85.59;99051.44;5069497;28;20036;-70
2021/12/10 06:12:59;;;;;;;7.72;3.22;;;;;;;2.36;85.24;99059.28;5053850;28;20033;-72
2021/12/10 06:15:26;;;;;;;5.93;3.38;;;;;;;2.35;84.98;99044.53;5069094;28;20089;-72
2021/12/10 06:17:52;;;;;;;10.38;3.72;;;;;;;2.36;85.21;99052.25;5060181;28;20075;-71
2021/12/10 06:20:21;;;;;;;9.55;3.78;;;;;;;2.34;85.09;99048.91;5054174;28;20028;-71
2021/12/10 06:22:47;;;;;;;15.50;3.60;;;;;;;2.37;85.03;99046.09;5066347;28;20090;-71
2021/12/10 06:25:12;;;;;;;7.35;3.17;;;;;;;2.37;84.97;99040.84;5056103;28;20468;-71
2021/12/10 06:27:44;;;;;;;8.88;3.45;;;;;;;2.37;85.14;99048.72;5063504;28;20417;-71
2021/12/10 06:30:12;;;;;;;7.90;3.38;;;;;;;2.37;85.09;99040.84;5065391;28;20475;-71
2021/12/10 06:32:37;;;;;;;10.75;3.67;;;;;;;2.39;84.72;99043.34;5074014;28;20020;-72
2021/12/10 06:35:03;;;;;;;14.88;3.88;;;;;;;2.40;84.96;99038.00;5061001;28;20494;-72
2021/12/10 06:37:28;;;;;;;9.40;3.30;;;;;;;2.41;85.00;99036.22;5052245;28;20047;-71
2021/12/10 06:39:53;;;;;;;8.38;3.40;;;;;;;2.42;85.25;99031.84;5055717;28;20048;-71
2021/12/10 06:42:19;;;;;;;9.90;3.83;;;;;;;2.42;85.03;99035.28;5054732;28;20546;-71
2021/12/10 06:44:44;;;;;;;10.02;3.75;;;;;;;2.43;84.87;99033.50;5050466;28;20016;-70
2021/12/10 06:47:09;;;;;;;12.13;3.30;;;;;;;2.44;84.89;99025.53;5062992;28;20025;-71
2021/12/10 06:49:35;;;;;;;13.23;3.67;;;;;;;2.43;85.04;99034.31;5073372;28;20119;-74
2021/12/10 06:52:01;;;;;;;12.15;5.15;;;;;;;2.44;84.99;99035.16;5071929;28;20052;-74
2021/12/10 06:54:29;;;;;;;7.50;3.50;;;;;;;2.45;84.57;99045.53;5044668;28;20036;-73
2021/12/10 06:56:56;;;;;;;8.75;3.53;;;;;;;2.47;84.58;99045.44;5062215;28;20024;-74
2021/12/10 06:59:24;;;;;;;11.30;4.40;;;;;;;2.47;84.67;99040.19;5073251;28;20190;-73
2021/12/10 07:01:49;;;;;;;12.27;3.70;;;;;;;2.48;84.88;99045.34;5066709;28;20036;-74
2021/12/10 07:04:14;;;;;;;10.55;5.13;;;;;;;2.50;84.69;99050.44;5065510;28;20382;-73
2021/12/10 07:06:43;;;;;;;12.60;7.10;;;;;;;2.49;85.04;99046.16;5058790;28;20798;-73
2021/12/10 07:09:18;;;;;;;12.10;5.00;;;;;;;2.50;84.92;99048.66;5059715;28;20053;-72
2021/12/10 07:11:45;;;;;;;12.65;4.65;;;;;;;2.51;84.94;99042.47;5057508;28;20036;-75
2021/12/10 07:14:10;;;;;;;11.85;4.25;;;;;;;2.52;84.40;99031.03;5059264;28;20452;-72
2021/12/10 07:16:36;;;;;;;10.05;4.53;;;;;;;2.50;84.64;99043.44;5040384;28;20036;-74
2021/12/10 07:19:04;;;;;;;10.25;3.65;;;;;;;2.52;84.40;99051.19;5048825;28;20115;-74
2021/12/10 07:21:31;;;;;;;10.75;4.32;;;;;;;2.49;84.71;99044.38;5038703;28;20038;-74
2021/12/10 07:24:01;;;;;;;10.00;4.00;;;;;;;2.54;84.41;99039.63;5037021;28;20490;-74
2021/12/10 07:26:27;;;;;;;12.70;4.75;;;;;;;2.51;84.69;99034.59;5051980;28;20021;-74
2021/12/10 07:28:53;;;;;;;10.75;4.00;;;;;;;2.53;84.62;99035.34;5049199;28;20368;-75
2021/12/10 07:31:18;;;;;;;14.65;4.13;;;;;;;2.52;84.30;99031.03;5051173;28;20036;-71
2021/12/10 07:33:43;;;;;;;10.90;3.45;;;;;;;2.52;84.06;99036.28;5048024;28;20045;-74
2021/12/10 07:36:09;;;;;;;10.40;4.03;;;;;;;2.52;84.16;99032.84;5055357;28;20100;-74
2021/12/10 07:38:35;;;;;;;12.90;4.20;;;;;;;2.53;84.59;99037.13;5055869;28;20053;-74
2021/12/10 07:41:01;;;;;;;10.95;4.63;;;;;;;2.54;84.76;99036.19;5045027;28;20483;-73
2021/12/10 07:43:27;;;;;;;11.38;4.68;;;;;;;2.53;84.71;99030.09;5038795;28;20034;-74
2021/12/10 07:45:52;;;;;;;10.25;3.78;;;;;;;2.50;85.56;99025.09;5039074;28;20036;-73
2021/12/10 07:48:20;;;;;;;13.60;5.30;;;;;;;2.51;85.57;99039.84;5035777;28;20091;-74
2021/12/10 07:50:53;;;;;;;15.55;4.65;;;;;;;2.51;85.55;99033.78;5035430;28;20044;-74
2021/12/10 07:53:23;;;;;;;8.32;3.63;;;;;;;2.50;85.49;99042.56;5035598;28;20029;-74
2021/12/10 07:55:49;;;;;;;11.68;3.45;;;;;;;2.50;85.89;99039.94;5053040;28;20506;-74
2021/12/10 07:58:14;;;;;;;21.38;11.45;;;;;;;2.50;85.99;99043.44;5071665;28;20074;-74
2021/12/10 08:00:43;;;;;;;7.85;3.30;;;;;;;2.50;85.81;99047.81;5054228;28;20065;-74
2021/12/10 08:03:09;;;;;;;8.07;3.05;;;;;;;2.47;86.03;99043.66;5058949;28;20485;-74
2021/12/10 08:05:36;;;;;;;8.85;3.08;;;;;;;2.50;85.83;99046.06;5055278;28;20470;-74
2021/12/10 08:08:02;;;;;;;9.05;3.25;;;;;;;2.50;86.15;99043.44;5057399;28;20036;-74
2021/12/10 08:10:29;;;;;;;8.13;2.92;;;;;;;2.50;86.11;99045.19;5046518;28;20480;-74
2021/12/10 08:12:55;;;;;;;10.35;3.33;;;;;;;2.50;86.05;99045.19;5052875;28;20051;-75
2021/12/10 08:15:20;;;;;;;10.55;3.10;;;;;;;2.51;85.46;99042.47;5061954;28;20068;-73
2021/12/10 08:17:46;;;;;;;8.55;3.17;;;;;;;2.52;85.64;99048.56;5053977;28;20545;-74
2021/12/10 08:20:18;;;;;;;10.70;2.83;;;;;;;2.51;85.87;99050.31;5038326;28;20045;-73
2021/12/10 08:22:45;;;;;;;10.43;3.35;;;;;;;2.52;85.86;99053.81;5060952;28;20736;-73
2021/12/10 08:25:10;;;;;;;11.60;3.17;;;;;;;2.53;85.68;99050.22;5049297;28;20321;-74
2021/12/10 08:27:38;;;;;;;11.20;3.05;;;;;;;2.53;85.64;99056.31;5051807;28;20035;-73
2021/12/10 08:30:05;;;;;;;12.05;3.88;;;;;;;2.54;85.68;99049.28;5051716;28;20085;-72
2021/12/10 08:32:32;;;;;;;11.02;3.70;;;;;;;2.55;85.67;99041.31;5052175;28;20316;-73
2021/12/10 08:34:59;;;;;;;9.02;3.13;;;;;;;2.56;85.83;99045.59;5049824;28;20036;-74
2021/12/10 08:37:24;;;;;;;10.68;3.05;;;;;;;2.56;85.82;99050.00;5049723;28;20031;-73
2021/12/10 08:39:50;;;;;;;11.27;3.25;;;;;;;2.57;85.13;99052.50;5050093;28;20127;-73
2021/12/10 08:42:15;;;;;;;11.60;3.97;;;;;;;2.62;85.08;99054.81;5053801;28;20037;-73
2021/12/10 08:44:42;;;;;;;9.73;3.42;;;;;;;2.61;84.75;99058.38;5049290;28;20049;-73
2021/12/10 08:47:09;;;;;;;10.95;2.95;;;;;;;2.62;85.05;99059.22;5057011;28;20028;-73
2021/12/10 08:49:35;;;;;;;10.13;3.72;;;;;;;2.63;84.54;99047.78;5044171;28;20128;-73
2021/12/10 08:52:01;;;;;;;10.57;3.08;;;;;;;2.64;84.30;99050.28;5047899;28;20610;-73
2021/12/10 08:54:29;;;;;;;8.57;2.72;;;;;;;2.63;84.50;99046.00;5061159;28;20115;-73
2021/12/10 08:56:56;;;;;;;9.30;3.08;;;;;;;2.64;84.83;99050.28;5032651;28;20029;-73
2021/12/10 08:59:24;;;;;;;13.15;3.17;;;;;;;2.65;84.09;99048.50;5039529;28;20132;-73
2021/12/10 09:01:53;;;;;;;8.88;3.15;;;;;;;2.65;84.78;99048.50;5032533;28;20035;-73
2021/12/10 09:04:18;;;;;;;14.20;3.47;;;;;;;2.67;84.94;99044.81;5045006;28;20042;-72
2021/12/10 09:06:49;;;;;;;9.30;3.30;;;;;;;2.66;84.66;99043.13;5044833;28;20030;-71
2021/12/10 09:09:15;;;;;;;11.13;3.22;;;;;;;2.71;84.04;99050.69;5055110;28;20051;-71
2021/12/10 09:11:45;;;;;;;6.78;3.60;;;;;;;2.72;84.34;99052.34;5071058;28;20161;-72
2021/12/10 09:14:11;;;;;;;8.73;2.95;;;;;;;2.76;83.94;99059.03;5066489;28;20132;-72
2021/12/10 09:16:37;;;;;;;11.23;3.67;;;;;;;2.76;84.35;99057.28;5046944;28;20025;-72
2021/12/10 09:19:07;;;;;;;7.95;3.33;;;;;;;2.76;83.49;99052.03;5071335;28;20099;-71
2021/12/10 09:21:34;;;;;;;9.90;3.83;;;;;;;2.80;83.90;99059.66;5061998;28;20032;-71
2021/12/10 09:24:04;;;;;;;11.50;3.72;;;;;;;2.82;84.12;99061.22;5059179;28;20035;-72
2021/12/10 09:26:32;;;;;;;12.60;3.47;;;;;;;2.84;84.20;99063.72;5069789;28;20025;-72
2021/12/10 09:28:58;;;;;;;20.65;10.40;;;;;;;2.85;83.61;99063.63;5043394;28;20428;-72
2021/12/10 09:31:24;;;;;;;12.20;4.30;;;;;;;2.87;83.42;99064.34;5056122;28;20512;-72
2021/12/10 09:33:56;;;;;;;11.20;4.45;;;;;;;2.88;83.44;99063.41;5031951;28;20735;-72
2021/12/10 09:36:21;;;;;;;14.05;4.22;;;;;;;2.92;82.99;99064.84;5044943;28;20052;-72
2021/12/10 09:38:48;;;;;;;12.48;4.65;;;;;;;2.92;83.15;99074.50;5046596;28;20024;-73
2021/12/10 09:41:13;;;;;;;10.32;3.75;;;;;;;2.93;83.29;99069.16;5068967;28;20413;-72
2021/12/10 09:43:40;;;;;;;8.82;3.72;;;;;;;2.94;83.61;99070.78;5043248;28;20040;-72
2021/12/10 09:46:06;;;;;;;8.93;3.75;;;;;;;2.96;82.85;99071.53;5060432;28;20048;-72
2021/12/10 09:48:32;;;;;;;11.10;4.80;;;;;;;2.99;83.55;99077.50;5050288;28;20556;-71
2021/12/10 09:51:12;;;;;;;10.75;4.32;;;;;;;3.02;83.46;99074.66;5046432;28;20455;-72
2021/12/10 09:53:41;;;;;;;9.80;3.78;;;;;;;3.01;82.99;99071.19;5041651;28;20029;-72
2021/12/10 09:56:07;;;;;;;9.00;3.90;;;;;;;3.04;82.95;99070.97;5031260;28;20124;-72
2021/12/10 09:58:34;;;;;;;12.60;3.92;;;;;;;3.06;82.90;99065.59;5038931;28;20768;-72
2021/12/10 10:01:07;;;;;;;11.38;4.05;;;;;;;3.08;82.92;99075.03;5059542;28;20483;-72
2021/12/10 10:03:37;;;;;;;9.73;3.88;;;;;;;3.09;82.22;99071.44;5042660;28;20025;-72
2021/12/10 10:06:04;;;;;;;8.18;3.97;;;;;;;3.11;82.98;99069.56;5070733;28;20067;-73
2021/12/10 10:08:32;;;;;;;8.45;3.75;;;;;;;3.13;82.53;99077.31;5058561;28;20102;-72
2021/12/10 10:11:02;;;;;;;10.63;5.07;;;;;;;3.14;82.64;99077.19;5052175;28;20037;-72
2021/12/10 10:13:31;;;;;;;8.30;3.45;;;;;;;3.15;82.11;99071.00;5062177;28;20021;-72
2021/12/10 10:15:59;;;;;;;6.93;3.38;;;;;;;3.19;82.22;99079.47;5062574;28;20124;-72
2021/12/10 10:18:26;;;;;;;13.05;3.92;;;;;;;3.20;81.70;99089.03;5044484;28;20037;-70
2021/12/10 10:20:56;;;;;;;9.93;3.65;;;;;;;3.20;81.26;99075.91;5058019;28;20032;-72
2021/12/10 10:23:22;;;;;;;9.20;3.70;;;;;;;3.21;82.01;99084.63;5051141;28;20030;-72
2021/12/10 10:25:51;;;;;;;12.60;4.07;;;;;;;3.22;81.99;99078.44;5038788;28;20127;-72
2021/12/10 10:28:18;;;;;;;7.05;3.65;;;;;;;3.26;81.61;99080.69;5064657;28;20150;-72
2021/12/10 10:31:00;;;;;;;8.20;3.42;;;;;;;3.29;81.82;99083.09;5049205;28;20490;-72
2021/12/10 10:33:30;;;;;;;9.13;3.50;;;;;;;3.31;80.19;99080.34;5069314;28;20029;-72
2021/12/10 10:35:58;;;;;;;9.25;3.50;;;;;;;3.32;81.08;99071.53;5063037;28;20044;-72
2021/12/10 10:38:26;;;;;;;9.83;3.27;;;;;;;3.33;81.28;99079.28;5036055;28;20029;-72
2021/12/10 10:40:59;;;;;;;13.82;3.53;;;;;;;3.37;80.94;99077.28;5039404;28;20157;-72
2021/12/10 10:43:27;;;;;;;5.88;3.13;;;;;;;3.39;81.34;99082.41;5031575;28;20042;-70
2021/12/10 10:45:54;;;;;;;6.07;3.15;;;;;;;3.40;80.35;99082.28;5053082;28;20045;-73
2021/12/10 10:48:21;;;;;;;9.13;3.50;;;;;;;3.42;80.72;99090.06;5042327;28;20445;-71
2021/12/10 10:50:46;;;;;;;12.60;3.55;;;;;;;3.44;80.61;99078.47;5054604;28;20488;-70
2021/12/10 10:53:14;;;;;;;6.20;2.92;;;;;;;3.45;80.71;99082.78;5029512;28;20033;-72
2021/12/10 10:55:58;;;;;;;9.88;3.45;;;;;;;3.49;80.91;99089.47;5038512;28;20107;-72
2021/12/10 10:58:26;;;;;;;8.55;3.38;;;;;;;3.48;79.54;99090.44;5048791;28;20041;-72
2021/12/10 11:01:00;;;;;;;7.30;3.10;;;;;;;3.46;80.67;99088.84;5040702;28;20047;-72
2021/12/10 11:03:38;;;;;;;12.10;3.40;;;;;;;3.46;80.01;99091.47;5051956;28;20025;-72
2021/12/10 11:06:08;;;;;;;13.27;3.67;;;;;;;3.47;80.73;99091.38;5046519;28;20058;-72
2021/12/10 11:08:44;;;;;;;5.68;3.53;;;;;;;3.49;81.29;99092.09;5066328;28;20056;-72
2021/12/10 11:11:24;;;;;;;8.48;3.63;;;;;;;3.50;81.56;99092.94;5065923;28;20040;-72
2021/12/10 11:14:08;;;;;;;9.25;3.42;;;;;;;3.50;81.46;99095.56;5049629;28;20113;-72
2021/12/10 11:16:36;;;;;;;8.48;3.75;;;;;;;3.54;80.83;99096.16;5041346;28;20056;-72
2021/12/10 11:19:29;;;;;;;13.88;3.42;;;;;;;3.54;81.12;99099.63;5045678;28;20104;-72
2021/12/10 11:22:04;;;;;;;11.77;3.17;;;;;;;3.54;81.14;99098.78;5032807;28;20199;-72
2021/12/10 11:24:45;;;;;;;11.13;3.67;;;;;;;3.55;81.07;99100.44;5030932;28;20022;-72
2021/12/10 11:27:50;;;;;;;9.75;2.88;;;;;;;3.58;81.63;99105.47;5034896;28;20029;-72
2021/12/10 11:30:19;;;;;;;9.05;2.88;;;;;;;3.59;80.43;99102.72;5041351;28;20033;-71
2021/12/10 11:32:52;;;;;;;7.78;3.42;;;;;;;3.57;81.50;99106.44;5024883;28;20109;-71
2021/12/10 11:35:25;;;;;;;7.18;3.58;;;;;;;3.57;80.79;99109.06;5031104;28;20040;-72
2021/12/10 11:37:56;;;;;;;8.45;3.08;;;;;;;3.57;80.69;99103.81;5050140;28;20201;-72
2021/12/10 11:40:38;;;;;;;8.85;2.88;;;;;;;3.51;80.63;99097.22;5058383;28;20065;-71
2021/12/10 11:48:33;;;;;;;9.02;3.35;;;;;;;3.50;82.02;99111.31;5068266;28;20347;-71
2021/12/10 11:51:07;;;;;;;7.97;3.00;;;;;;;3.50;81.78;99121.81;5042065;28;20025;-72
2021/12/10 11:53:45;;;;;;;8.68;3.25;;;;;;;3.50;82.26;99122.66;5062777;28;20058;-71
2021/12/10 11:56:34;;;;;;;8.07;3.27;;;;;;;3.51;82.20;99112.97;5057196;28;20032;-71
2021/12/10 11:59:14;;;;;;;9.55;3.55;;;;;;;3.51;82.89;99119.09;5062552;28;20036;-71